Time;durP1;ratioP1;P1;durP2;ratioP2;P2;SDS_P1;SDS_P2;PMS_P1;PMS_P2;Temp;Humidity;BMP_temperature;BMP_pressure;BME280_temperature;BME280_humidity;BME280_pressure;Samples;Min_cycle;Max_cycle;Signal;HPM_P1;HPM_P2
2023/07/19 00:02:07;;;;;;;7.53;2.95;;;;;;;20.75;56.34;100082.06;5044816;28;20093;-72
2023/07/19 00:04:34;;;;;;;5.40;3.00;;;;;;;20.73;56.17;100076.00;5059760;28;20045;-74
2023/07/19 00:07:00;;;;;;;6.28;3.17;;;;;;;20.83;56.35;100082.19;5054988;28;20052;-72
2023/07/19 00:09:27;;;;;;;8.75;3.20;;;;;;;20.76;57.03;100062.25;5073359;28;20127;-74
2023/07/19 00:11:53;;;;;;;7.65;3.25;;;;;;;20.76;56.90;100070.31;5055221;28;20128;-75
2023/07/19 00:14:21;;;;;;;6.97;3.30;;;;;;;20.70;57.43;100066.34;5048870;28;20530;-75
2023/07/19 00:16:48;;;;;;;7.28;3.50;;;;;;;20.60;57.90;100063.69;5048906;28;20075;-75
2023/07/19 00:19:14;;;;;;;6.38;3.03;;;;;;;20.46;57.96;100025.63;5058182;28;20059;-75
2023/07/19 00:21:47;;;;;;;5.75;3.38;;;;;;;20.65;57.88;100061.41;5071753;28;20048;-75
2023/07/19 00:24:13;;;;;;;7.28;3.38;;;;;;;20.56;58.99;100056.91;5050996;28;20101;-75
2023/07/19 00:26:40;;;;;;;8.60;3.15;;;;;;;20.56;58.30;100056.06;5070869;28;20082;-74
2023/07/19 00:29:07;;;;;;;8.27;3.13;;;;;;;20.48;58.24;100064.81;5071622;28;20058;-74
2023/07/19 00:31:34;;;;;;;9.18;3.30;;;;;;;20.50;59.26;100073.59;5070858;28;20508;-73
2023/07/19 00:34:01;;;;;;;8.35;3.17;;;;;;;20.38;59.06;100061.31;5056466;28;20050;-74
2023/07/19 00:36:28;;;;;;;6.00;3.10;;;;;;;20.39;59.51;100067.53;5054921;28;20094;-74
2023/07/19 00:38:54;;;;;;;10.40;3.50;;;;;;;20.46;59.78;100077.56;5050516;28;20079;-74
2023/07/19 00:41:21;;;;;;;8.57;3.35;;;;;;;20.35;59.75;100071.44;5062048;28;20048;-73
2023/07/19 00:43:48;;;;;;;6.68;2.80;;;;;;;20.33;60.13;100083.19;5048036;28;20103;-74
2023/07/19 00:46:17;;;;;;;6.60;3.38;;;;;;;20.28;59.97;100076.56;5060246;28;20044;-74
2023/07/19 00:48:45;;;;;;;4.53;2.88;;;;;;;20.22;59.55;100075.28;5045354;28;20528;-73
2023/07/19 00:51:12;;;;;;;6.43;2.63;;;;;;;20.17;60.39;100080.22;5069060;28;20036;-72
2023/07/19 00:53:39;;;;;;;6.47;3.10;;;;;;;20.13;60.46;100080.66;5049048;28;20067;-72
2023/07/19 00:56:07;;;;;;;5.10;2.75;;;;;;;20.07;60.80;100081.22;5056817;28;20055;-72
2023/07/19 00:58:35;;;;;;;7.72;3.22;;;;;;;20.08;60.94;100085.59;5071572;28;20118;-74
2023/07/19 01:01:02;;;;;;;7.65;3.08;;;;;;;20.07;61.53;100086.59;5057819;28;20665;-74
2023/07/19 01:03:28;;;;;;;7.10;3.20;;;;;;;20.03;61.91;100083.34;5058655;28;20304;-72
2023/07/19 01:05:58;;;;;;;6.00;3.20;;;;;;;19.91;61.13;100058.44;5073190;28;20095;-73
2023/07/19 01:08:26;;;;;;;10.25;3.22;;;;;;;20.00;61.50;100074.69;5073195;28;20680;-74
2023/07/19 01:10:53;;;;;;;9.80;3.22;;;;;;;20.06;61.71;100076.84;5071166;28;20049;-74
2023/07/19 01:13:20;;;;;;;7.13;3.30;;;;;;;20.06;61.77;100080.38;5063536;28;20045;-74
2023/07/19 01:15:48;;;;;;;6.88;2.80;;;;;;;19.98;62.17;100065.94;5080310;28;20049;-75
2023/07/19 01:18:18;;;;;;;5.82;3.20;;;;;;;19.84;63.19;100057.28;5072354;28;20094;-73
2023/07/19 01:20:45;;;;;;;9.32;3.10;;;;;;;19.89;62.88;100059.56;5068740;28;20048;-74
2023/07/19 01:23:12;;;;;;;6.43;3.00;;;;;;;19.91;63.28;100074.56;5079482;28;20055;-74
2023/07/19 01:25:39;;;;;;;6.93;3.10;;;;;;;19.83;63.82;100071.69;5061554;28;20112;-75
2023/07/19 01:28:06;;;;;;;5.88;3.45;;;;;;;19.77;64.43;100076.78;5058511;28;20056;-73
2023/07/19 01:30:33;;;;;;;9.95;3.28;;;;;;;19.74;64.69;100069.84;5055963;28;20048;-74
2023/07/19 01:33:01;;;;;;;8.65;3.38;;;;;;;19.72;64.75;100069.13;5052791;28;20059;-74
2023/07/19 01:35:29;;;;;;;6.47;3.15;;;;;;;19.68;64.77;100064.16;5057982;28;20612;-74
2023/07/19 01:37:55;;;;;;;7.10;3.30;;;;;;;19.54;65.24;100044.78;5054661;28;20048;-75
2023/07/19 01:40:22;;;;;;;5.93;3.10;;;;;;;19.63;65.46;100059.22;5048320;28;20566;-74
2023/07/19 01:42:50;;;;;;;6.47;2.65;;;;;;;19.61;65.89;100061.22;5053955;28;20048;-74
2023/07/19 01:45:17;;;;;;;5.72;3.28;;;;;;;19.66;66.21;100058.13;5059676;28;20059;-75
2023/07/19 01:47:44;;;;;;;9.63;3.03;;;;;;;19.66;66.26;100056.28;5050569;28;20056;-75
2023/07/19 01:50:11;;;;;;;7.25;3.15;;;;;;;19.65;66.02;100059.94;5072050;28;20062;-72
2023/07/19 01:52:38;;;;;;;4.82;2.83;;;;;;;19.63;65.83;100050.31;5060434;28;20041;-73
2023/07/19 01:55:06;;;;;;;7.13;3.08;;;;;;;19.63;66.07;100053.88;5042556;28;20044;-72
2023/07/19 01:57:35;;;;;;;5.40;3.25;;;;;;;19.59;65.62;100053.28;5056613;28;20859;-73
2023/07/19 02:00:03;;;;;;;6.85;2.95;;;;;;;19.55;66.50;100051.00;5074921;28;20045;-73
2023/07/19 02:02:30;;;;;;;7.13;3.10;;;;;;;19.49;67.69;100048.84;5047892;28;20083;-73
2023/07/19 02:04:57;;;;;;;5.50;3.28;;;;;;;19.47;68.09;100042.75;5058975;28;20135;-73
2023/07/19 02:07:27;;;;;;;7.03;3.40;;;;;;;19.45;68.74;100031.31;5060593;28;20056;-73
2023/07/19 02:09:54;;;;;;;4.40;3.00;;;;;;;19.45;69.00;100036.69;5042510;28;20040;-73
2023/07/19 02:12:21;;;;;;;5.03;3.00;;;;;;;19.40;68.18;100041.59;5045982;28;20140;-73
2023/07/19 02:14:47;;;;;;;10.27;3.20;;;;;;;19.30;68.69;100027.31;5059509;28;20056;-73
2023/07/19 02:17:16;;;;;;;6.13;2.85;;;;;;;19.35;68.99;100041.19;5080148;28;20055;-73
2023/07/19 02:19:43;;;;;;;7.10;3.40;;;;;;;19.20;69.02;100020.03;5060711;28;20568;-72
2023/07/19 02:22:12;;;;;;;8.23;3.35;;;;;;;19.15;69.29;100024.16;5072892;28;20136;-73
2023/07/19 02:24:38;;;;;;;6.30;2.90;;;;;;;19.13;69.47;100021.59;5044087;28;20067;-73
2023/07/19 02:27:05;;;;;;;6.43;2.80;;;;;;;19.08;69.64;100021.13;5052290;28;20087;-73
2023/07/19 02:29:32;;;;;;;7.68;3.10;;;;;;;19.14;69.82;100039.41;5060821;28;20084;-72
2023/07/19 02:31:59;;;;;;;6.97;3.20;;;;;;;19.08;70.91;100031.03;5055385;28;20050;-73
2023/07/19 02:34:25;;;;;;;7.32;3.05;;;;;;;18.98;71.51;100017.59;5041049;28;20519;-73
2023/07/19 02:36:52;;;;;;;4.72;2.90;;;;;;;19.00;71.35;100031.72;5050261;28;20563;-73
2023/07/19 02:39:20;;;;;;;8.00;3.30;;;;;;;18.88;72.59;100028.28;5051798;28;20041;-72
2023/07/19 02:41:46;;;;;;;8.40;3.75;;;;;;;18.86;73.77;100030.25;5055319;28;20052;-74
2023/07/19 02:44:13;;;;;;;6.10;3.30;;;;;;;18.89;72.82;100043.38;5068620;28;20142;-73
2023/07/19 02:46:40;;;;;;;6.05;3.20;;;;;;;18.89;73.71;100050.56;5057276;28;20048;-73
2023/07/19 02:49:06;;;;;;;5.30;3.22;;;;;;;18.84;73.33;100048.31;5069766;28;20059;-74
2023/07/19 02:51:33;;;;;;;7.43;3.35;;;;;;;18.78;74.59;100050.66;5048876;28;20570;-74
2023/07/19 02:54:00;;;;;;;6.82;3.38;;;;;;;18.67;74.63;100042.69;5047339;28;20472;-73
2023/07/19 02:56:26;;;;;;;5.95;3.13;;;;;;;18.61;74.76;100049.41;5052105;28;20068;-74
2023/07/19 02:58:53;;;;;;;5.38;3.03;;;;;;;18.58;74.88;100058.56;5062017;28;20052;-75
2023/07/19 03:01:20;;;;;;;5.90;3.05;;;;;;;18.48;76.22;100046.91;5067988;28;20044;-74
2023/07/19 03:03:48;;;;;;;7.90;3.20;;;;;;;18.49;76.73;100069.22;5049861;28;20711;-73
2023/07/19 03:06:15;;;;;;;6.60;3.60;;;;;;;18.47;77.19;100069.34;5064327;28;20094;-74
2023/07/19 03:08:43;;;;;;;6.55;3.50;;;;;;;18.39;76.71;100057.56;5070272;28;20060;-74
2023/07/19 03:11:09;;;;;;;7.47;3.55;;;;;;;18.33;77.01;100056.25;5075203;28;20040;-74
2023/07/19 03:13:36;;;;;;;6.60;3.47;;;;;;;18.38;76.68;100077.31;5046331;28;20258;-74
2023/07/19 03:16:05;;;;;;;6.97;2.90;;;;;;;18.22;77.11;100059.00;5040081;28;20044;-74
2023/07/19 03:18:32;;;;;;;7.10;3.47;;;;;;;18.16;77.19;100070.22;5049974;28;20571;-73
2023/07/19 03:21:06;;;;;;;6.30;3.22;;;;;;;18.12;77.52;100071.44;5057381;28;20431;-73
2023/07/19 03:23:33;;;;;;;7.18;2.90;;;;;;;18.15;77.09;100080.09;5068805;28;20050;-75
2023/07/19 03:26:01;;;;;;;9.23;3.58;;;;;;;18.07;78.05;100074.53;5043364;28;20041;-75
2023/07/19 03:28:29;;;;;;;8.32;3.45;;;;;;;18.03;78.36;100078.44;5048332;28;20098;-75
2023/07/19 03:30:58;;;;;;;9.90;3.30;;;;;;;18.01;77.88;100063.47;5067964;28;20048;-75
2023/07/19 03:33:25;;;;;;;9.20;3.63;;;;;;;18.09;77.75;100071.72;5050038;28;20045;-76
2023/07/19 03:35:52;;;;;;;5.63;3.10;;;;;;;18.10;77.67;100062.72;5048091;28;20119;-74
2023/07/19 03:38:20;;;;;;;6.05;3.35;;;;;;;18.09;77.79;100055.66;5054739;28;20052;-74
2023/07/19 03:40:47;;;;;;;5.57;2.90;;;;;;;18.10;76.91;100068.06;5067255;28;20119;-74
2023/07/19 03:43:14;;;;;;;9.20;3.33;;;;;;;18.11;77.01;100075.09;5054625;28;20075;-74
2023/07/19 03:45:40;;;;;;;7.75;3.25;;;;;;;18.06;77.24;100072.81;5047301;28;20058;-76
2023/07/19 03:48:07;;;;;;;4.40;3.10;;;;;;;17.99;77.21;100073.44;5035176;28;20049;-74
2023/07/19 03:50:35;;;;;;;5.03;3.03;;;;;;;17.98;77.00;100075.28;5059695;28;20044;-75
2023/07/19 03:53:04;;;;;;;4.13;2.78;;;;;;;17.91;77.37;100074.09;5077316;28;20820;-74
2023/07/19 03:55:32;;;;;;;5.57;3.07;;;;;;;18.00;77.83;100093.91;5051567;28;20053;-75
2023/07/19 03:57:59;;;;;;;4.70;3.08;;;;;;;17.94;77.64;100092.59;5046431;28;20501;-73
2023/07/19 04:00:28;;;;;;;9.75;3.15;;;;;;;18.00;78.60;100099.25;5051054;28;20155;-75
2023/07/19 04:02:58;;;;;;;4.78;3.15;;;;;;;18.04;78.32;100104.25;5054489;28;20044;-74
2023/07/19 04:05:25;;;;;;;4.30;3.08;;;;;;;18.04;78.09;100101.56;5045738;28;20045;-74
2023/07/19 04:07:51;;;;;;;7.70;3.60;;;;;;;17.87;77.76;100097.59;5055430;28;20044;-75
2023/07/19 04:10:18;;;;;;;7.80;2.88;;;;;;;17.82;77.90;100105.16;5065462;28;20047;-76
2023/07/19 04:12:45;;;;;;;6.85;3.45;;;;;;;17.80;78.20;100116.97;5054680;28;20150;-75
2023/07/19 04:15:11;;;;;;;5.30;3.38;;;;;;;17.66;78.78;100088.63;5055533;28;20048;-76
2023/07/19 04:17:38;;;;;;;7.22;3.70;;;;;;;17.66;78.37;100075.22;5052476;28;20048;-75
2023/07/19 04:20:06;;;;;;;5.28;3.00;;;;;;;17.75;79.59;100100.44;5053051;28;20063;-75
2023/07/19 04:22:33;;;;;;;5.53;3.25;;;;;;;17.68;80.48;100102.75;5056055;28;20563;-76
2023/07/19 04:25:01;;;;;;;6.50;3.60;;;;;;;17.64;81.52;100103.09;5062931;28;20062;-75
2023/07/19 04:27:28;;;;;;;7.47;3.70;;;;;;;17.58;81.42;100106.25;5051679;28;20107;-75
2023/07/19 04:29:55;;;;;;;4.85;3.22;;;;;;;17.50;83.24;100088.13;5064677;28;20048;-75
2023/07/19 04:32:22;;;;;;;9.60;3.90;;;;;;;17.63;83.01;100114.78;5060570;28;20098;-76
2023/07/19 04:34:58;;;;;;;6.55;3.45;;;;;;;17.58;82.91;100106.25;5053371;28;20079;-75
2023/07/19 04:37:24;;;;;;;8.05;3.63;;;;;;;17.62;83.54;100111.25;5064736;28;20558;-75
2023/07/19 04:39:51;;;;;;;8.30;3.55;;;;;;;17.63;83.26;100106.75;5064758;28;20040;-76
2023/07/19 04:42:19;;;;;;;5.95;3.28;;;;;;;17.63;84.23;100122.81;5036568;28;20086;-75
2023/07/19 04:44:47;;;;;;;5.68;3.05;;;;;;;17.59;84.34;100111.50;5065788;28;20056;-75
2023/07/19 04:47:14;;;;;;;8.07;3.47;;;;;;;17.66;83.59;100104.69;5046750;28;20048;-74
2023/07/19 04:49:40;;;;;;;6.78;3.30;;;;;;;17.70;83.67;100114.19;5050148;28;20052;-75
2023/07/19 04:52:07;;;;;;;6.00;3.17;;;;;;;17.63;83.65;100088.00;5048573;28;20051;-76
2023/07/19 04:54:35;;;;;;;9.75;3.33;;;;;;;17.77;84.39;100120.75;5067994;28;20072;-75
2023/07/19 04:57:02;;;;;;;7.63;3.92;;;;;;;17.75;85.18;100117.34;5058963;28;20050;-75
2023/07/19 04:59:29;;;;;;;10.48;3.83;;;;;;;17.72;85.17;100120.28;5050281;28;20055;-75
2023/07/19 05:01:56;;;;;;;6.05;3.53;;;;;;;17.63;86.46;100101.41;5057943;28;20044;-75
2023/07/19 05:04:23;;;;;;;4.78;3.60;;;;;;;17.68;86.29;100099.22;5063899;28;20044;-74
2023/07/19 05:06:50;;;;;;;9.68;3.72;;;;;;;17.84;85.92;100105.88;5046419;28;20135;-74
2023/07/19 05:09:17;;;;;;;9.30;3.83;;;;;;;17.87;85.58;100092.25;5059133;28;20069;-74
2023/07/19 05:11:44;;;;;;;7.75;3.80;;;;;;;17.97;85.34;100091.47;5074367;28;20049;-75
2023/07/19 05:14:11;;;;;;;7.72;3.55;;;;;;;17.96;86.28;100076.38;5056509;28;20463;-75
2023/07/19 05:16:37;;;;;;;7.93;3.15;;;;;;;18.09;84.34;100085.97;5049261;28;20056;-75
2023/07/19 05:19:06;;;;;;;6.13;3.47;;;;;;;18.20;83.28;100101.16;5058631;28;20079;-75
2023/07/19 05:21:32;;;;;;;5.60;3.30;;;;;;;18.28;82.93;100096.00;5070557;28;20053;-75
2023/07/19 05:23:59;;;;;;;7.43;3.80;;;;;;;18.36;82.30;100109.63;5072613;28;20045;-74
2023/07/19 05:26:27;;;;;;;6.65;3.88;;;;;;;18.44;82.59;100104.44;5053681;28;20209;-74
2023/07/19 05:28:54;;;;;;;6.60;3.50;;;;;;;18.37;88.31;100115.81;5065557;28;20061;-74
2023/07/19 05:31:20;;;;;;;8.90;3.40;;;;;;;18.20;89.31;100114.56;5052842;28;20049;-75
2023/07/19 05:33:48;;;;;;;7.32;3.42;;;;;;;18.05;90.66;100114.00;5051121;28;20079;-75
2023/07/19 05:36:14;;;;;;;10.90;3.80;;;;;;;18.01;92.27;100109.00;5047436;28;20052;-75
2023/07/19 05:38:41;;;;;;;7.40;3.72;;;;;;;18.00;92.34;100113.50;5054026;28;20055;-75
2023/07/19 05:41:07;;;;;;;5.75;3.83;;;;;;;18.07;92.49;100120.09;5055352;28;20063;-75
2023/07/19 05:43:34;;;;;;;6.72;3.70;;;;;;;17.99;92.73;100113.63;5052027;28;20044;-74
2023/07/19 05:46:08;;;;;;;5.35;3.58;;;;;;;18.01;92.80;100117.91;5045823;28;20994;-74
2023/07/19 05:48:36;;;;;;;8.00;3.53;;;;;;;18.06;92.74;100121.06;5057359;28;20052;-76
2023/07/19 05:51:05;;;;;;;6.18;3.40;;;;;;;18.13;91.63;100121.38;5050568;28;20044;-76
2023/07/19 05:53:32;;;;;;;8.57;3.40;;;;;;;18.32;89.36;100120.72;5068154;28;20133;-75
2023/07/19 05:55:58;;;;;;;12.68;4.75;;;;;;;18.44;88.65;100120.53;5048941;28;20045;-75
2023/07/19 05:58:27;;;;;;;6.72;3.10;;;;;;;18.54;87.90;100102.72;5066126;28;20377;-75
2023/07/19 06:00:53;;;;;;;6.43;3.47;;;;;;;18.78;85.26;100120.41;5056418;28;20052;-74
2023/07/19 06:03:20;;;;;;;9.48;3.60;;;;;;;18.95;81.22;100113.59;5051270;28;20048;-75
2023/07/19 06:05:47;;;;;;;5.35;3.53;;;;;;;19.15;77.76;100110.03;5051866;28;20044;-75
2023/07/19 06:08:14;;;;;;;10.23;3.95;;;;;;;19.39;76.77;100115.94;5052414;28;20551;-74
2023/07/19 06:10:53;;;;;;;7.85;3.53;;;;;;;19.63;76.32;100112.97;5054365;28;20055;-74
2023/07/19 06:13:22;;;;;;;10.70;4.45;;;;;;;19.82;76.19;100125.59;5062248;28;20037;-75
2023/07/19 06:15:49;;;;;;;12.90;4.10;;;;;;;19.86;75.48;100129.69;5073513;28;20040;-74
2023/07/19 06:18:17;;;;;;;15.77;4.07;;;;;;;19.80;75.54;100128.44;5052970;28;20048;-76
2023/07/19 06:20:44;;;;;;;10.45;3.72;;;;;;;19.91;75.91;100125.63;5060355;28;20076;-75
2023/07/19 06:23:11;;;;;;;9.85;3.67;;;;;;;20.09;72.91;100128.47;5061154;28;20051;-76
2023/07/19 06:25:38;;;;;;;10.57;3.70;;;;;;;20.31;70.40;100124.66;5062651;28;20057;-76
2023/07/19 06:28:04;;;;;;;9.73;3.47;;;;;;;20.64;67.95;100118.88;5046476;28;20060;-75
2023/07/19 06:30:31;;;;;;;8.75;3.58;;;;;;;21.17;63.09;100129.16;5055605;28;20045;-76
2023/07/19 06:32:58;;;;;;;7.68;3.40;;;;;;;21.65;62.88;100110.13;5071699;28;20052;-76
2023/07/19 06:35:25;;;;;;;11.25;3.45;;;;;;;22.19;57.62;100118.34;5065994;28;20052;-77
2023/07/19 06:37:52;;;;;;;9.35;3.40;;;;;;;22.57;55.77;100120.72;5046934;28;20052;-75
2023/07/19 06:40:19;;;;;;;7.55;3.55;;;;;;;22.92;54.86;100127.13;5074799;28;20242;-76
2023/07/19 06:42:46;;;;;;;11.88;3.58;;;;;;;23.24;54.36;100126.47;5053759;28;20127;-75
2023/07/19 06:45:13;;;;;;;5.13;3.08;;;;;;;23.49;52.61;100120.19;5055180;28;20064;-74
2023/07/19 06:47:40;;;;;;;7.40;3.20;;;;;;;23.73;50.01;100123.06;5058428;28;20056;-76
2023/07/19 06:50:08;;;;;;;7.00;3.00;;;;;;;24.08;49.52;100105.72;5047962;28;20082;-74
2023/07/19 06:52:34;;;;;;;5.35;3.08;;;;;;;24.69;48.66;100119.91;5066821;28;20049;-75
2023/07/19 06:55:03;;;;;;;7.80;3.17;;;;;;;25.17;46.25;100119.88;5039449;28;20499;-75
2023/07/19 06:57:30;;;;;;;7.00;3.30;;;;;;;25.50;45.14;100123.31;5056860;28;20049;-76
2023/07/19 07:00:00;;;;;;;5.22;3.17;;;;;;;25.60;44.55;100125.00;5053938;28;20037;-75
2023/07/19 07:02:27;;;;;;;6.30;3.05;;;;;;;25.68;43.49;100111.41;5047545;28;20045;-75
2023/07/19 07:04:54;;;;;;;8.35;5.13;;;;;;;25.54;43.81;100121.09;5051323;28;20058;-74
2023/07/19 07:07:20;;;;;;;6.68;3.10;;;;;;;25.23;45.45;100131.88;5050258;28;20143;-75
2023/07/19 07:09:47;;;;;;;12.77;4.20;;;;;;;24.76;47.08;100127.16;5072168;28;20067;-75
2023/07/19 07:12:17;;;;;;;14.52;4.05;;;;;;;24.08;47.22;100135.50;5070964;28;20040;-75
2023/07/19 07:14:43;;;;;;;11.77;3.80;;;;;;;23.49;49.59;100141.81;5081057;28;20040;-75
2023/07/19 07:17:10;;;;;;;10.40;3.97;;;;;;;23.20;50.56;100130.50;5054569;28;20582;-76
2023/07/19 07:19:38;;;;;;;10.18;3.50;;;;;;;23.45;52.32;100141.28;5069010;28;20032;-77
2023/07/19 07:22:05;;;;;;;8.30;3.85;;;;;;;23.96;51.35;100139.50;5057312;28;20139;-75
2023/07/19 07:24:34;;;;;;;9.57;3.67;;;;;;;24.68;48.42;100132.59;5070491;28;20550;-76
2023/07/19 07:27:03;;;;;;;9.55;3.60;;;;;;;24.70;47.62;100119.72;5061704;28;20076;-74
2023/07/19 07:29:29;;;;;;;8.60;3.88;;;;;;;25.35;46.85;100135.06;5054289;28;20053;-75
2023/07/19 07:32:02;;;;;;;8.20;3.95;;;;;;;25.83;43.15;100128.63;5049211;28;20060;-76
2023/07/19 07:34:30;;;;;;;8.68;3.53;;;;;;;26.16;42.72;100130.16;5050775;28;20064;-77
2023/07/19 07:36:58;;;;;;;7.80;3.90;;;;;;;26.43;42.31;100122.56;5033339;28;20052;-76
2023/07/19 07:39:27;;;;;;;7.25;3.70;;;;;;;26.72;42.56;100114.53;5057936;28;20059;-79
2023/07/19 07:41:57;;;;;;;9.20;3.60;;;;;;;26.72;41.44;100110.97;5052849;28;20045;-75
2023/07/19 07:44:24;;;;;;;9.27;3.47;;;;;;;26.40;41.97;100106.66;5046606;28;20413;-74
2023/07/19 07:46:52;;;;;;;9.82;3.42;;;;;;;26.43;43.18;100099.00;5046172;28;20056;-78
2023/07/19 07:49:19;;;;;;;7.43;3.58;;;;;;;26.79;41.20;100115.47;5056674;28;20075;-75
2023/07/19 07:51:48;;;;;;;5.90;3.25;;;;;;;27.10;40.25;100100.94;5045218;28;20053;-75
2023/07/19 07:54:15;;;;;;;6.30;3.58;;;;;;;26.92;40.26;100105.88;5058827;28;20128;-76
2023/07/19 07:56:42;;;;;;;7.53;3.30;;;;;;;26.61;40.97;100114.94;5044624;28;20140;-76
2023/07/19 07:59:09;;;;;;;8.75;3.42;;;;;;;26.55;41.35;100097.53;5032271;28;20135;-75
2023/07/19 08:01:35;;;;;;;7.35;3.40;;;;;;;27.08;40.93;100092.97;5049495;28;20079;-75
2023/07/19 08:04:02;;;;;;;8.00;3.47;;;;;;;27.52;39.15;100090.28;5047244;28;20107;-74
2023/07/19 08:06:29;;;;;;;6.85;3.72;;;;;;;27.31;39.60;100089.34;5046858;28;20053;-77
2023/07/19 08:08:58;;;;;;;8.82;4.25;;;;;;;26.77;41.24;100086.78;5050185;28;20052;-74
2023/07/19 08:11:26;;;;;;;6.35;3.70;;;;;;;26.35;40.87;100085.47;5068209;28;20044;-74
2023/07/19 08:13:53;;;;;;;5.68;3.40;;;;;;;26.53;42.20;100091.44;5055433;28;20134;-76
2023/07/19 08:16:20;;;;;;;7.97;3.47;;;;;;;27.00;41.01;100087.63;5048441;28;20053;-76
2023/07/19 08:18:47;;;;;;;7.40;3.35;;;;;;;27.18;40.83;100079.97;5062838;28;20052;-75
2023/07/19 08:21:14;;;;;;;7.70;3.30;;;;;;;27.04;40.77;100069.94;5063904;28;20420;-76
2023/07/19 08:23:55;;;;;;;7.45;3.60;;;;;;;27.43;40.39;100066.94;5063122;28;20416;-77
2023/07/19 08:26:24;;;;;;;9.07;3.53;;;;;;;27.89;40.35;100055.81;5048813;28;20049;-75
2023/07/19 08:28:54;;;;;;;5.97;3.35;;;;;;;28.13;37.80;100062.78;5051651;28;20056;-74
2023/07/19 08:31:23;;;;;;;9.57;3.53;;;;;;;27.32;38.70;100052.97;5051102;28;20072;-76
2023/07/19 08:33:52;;;;;;;10.30;3.72;;;;;;;27.25;40.09;100044.72;5053379;28;20128;-78
2023/07/19 08:36:19;;;;;;;7.93;3.13;;;;;;;27.44;40.80;100055.03;5051386;28;20080;-76
2023/07/19 08:38:46;;;;;;;6.32;3.20;;;;;;;27.49;39.92;100043.59;5059177;28;20070;-75
2023/07/19 08:41:18;;;;;;;7.13;3.15;;;;;;;27.61;38.85;100041.25;5055348;28;20148;-78
2023/07/19 08:43:45;;;;;;;7.82;3.03;;;;;;;27.44;37.57;100035.97;5053586;28;20109;-75
2023/07/19 08:46:16;;;;;;;5.60;3.10;;;;;;;27.04;37.78;100036.47;5072189;28;20040;-77
2023/07/19 08:48:47;;;;;;;8.30;3.42;;;;;;;26.76;39.08;100038.97;5060212;28;20685;-75
2023/07/19 08:51:16;;;;;;;5.60;2.72;;;;;;;26.78;40.01;100031.44;5055140;28;20044;-77
2023/07/19 08:53:43;;;;;;;7.03;3.33;;;;;;;27.25;39.21;100025.69;5050478;28;20049;-75
2023/07/19 08:56:11;;;;;;;5.63;3.08;;;;;;;27.64;38.62;100022.66;5059261;28;20072;-74
2023/07/19 08:58:39;;;;;;;4.20;2.80;;;;;;;27.98;38.01;100019.28;5062784;28;20059;-74
2023/07/19 09:01:07;;;;;;;5.13;2.95;;;;;;;28.26;37.05;100031.13;5053676;28;20055;-77
2023/07/19 09:03:34;;;;;;;6.32;2.90;;;;;;;28.05;37.03;100020.19;5054715;28;20048;-75
2023/07/19 09:06:01;;;;;;;6.43;3.00;;;;;;;28.15;36.00;100023.44;5052521;28;20055;-76
2023/07/19 09:08:39;;;;;;;4.07;2.55;;;;;;;28.23;35.95;100028.78;5042669;28;20500;-75
2023/07/19 09:11:07;;;;;;;6.35;3.25;;;;;;;28.58;35.53;100028.88;5052604;28;20073;-76
2023/07/19 09:13:37;;;;;;;7.45;2.83;;;;;;;28.76;35.86;100025.66;5067507;28;20053;-76
2023/07/19 09:16:05;;;;;;;6.38;2.60;;;;;;;28.53;34.75;100026.72;5067250;28;20048;-76
2023/07/19 09:18:36;;;;;;;5.28;2.70;;;;;;;28.40;35.67;100023.06;5045996;28;20088;-75
2023/07/19 09:21:05;;;;;;;5.03;2.70;;;;;;;28.48;34.27;100028.38;5060009;28;20044;-76
2023/07/19 09:23:37;;;;;;;6.93;2.42;;;;;;;28.25;35.40;100002.19;5070588;28;20076;-76
2023/07/19 09:26:06;;;;;;;5.10;2.50;;;;;;;28.18;34.02;100009.41;5050905;28;20077;-75
2023/07/19 09:28:34;;;;;;;5.68;2.40;;;;;;;28.17;35.04;100010.47;5036981;28;20049;-75
2023/07/19 09:31:03;;;;;;;5.85;1.80;;;;;;;28.36;33.03;99999.97;5050990;28;21670;-77
2023/07/19 09:33:33;;;;;;;5.35;3.45;;;;;;;28.59;33.67;100008.78;5052649;28;20969;-75
2023/07/19 09:36:00;;;;;;;4.75;3.25;;;;;;;28.50;33.43;99999.03;5050310;28;20053;-75
2023/07/19 09:38:26;;;;;;;6.00;2.10;;;;;;;28.61;33.82;99993.91;5045796;28;20054;-75
2023/07/19 09:40:55;;;;;;;5.47;2.15;;;;;;;28.53;32.18;99995.94;5049475;28;20568;-74
2023/07/19 09:43:22;;;;;;;4.95;1.98;;;;;;;28.75;32.88;100007.63;5047816;28;20049;-77
2023/07/19 09:45:50;;;;;;;2.80;2.20;;;;;;;29.15;32.95;100000.56;5047592;28;20620;-74
2023/07/19 09:48:18;;;;;;;9.95;2.40;;;;;;;29.13;32.35;99981.66;5032970;28;20083;-74
2023/07/19 09:50:48;;;;;;;2.53;1.70;;;;;;;28.94;31.78;99991.44;5066948;28;20239;-75
2023/07/19 09:53:15;;;;;;;4.07;2.15;;;;;;;28.83;31.29;99982.97;5051384;28;20479;-75
2023/07/19 09:55:45;;;;;;;3.80;1.85;;;;;;;29.13;33.12;99994.47;5047543;28;20060;-75
2023/07/19 09:58:15;;;;;;;4.60;1.90;;;;;;;29.35;31.15;99985.13;5058982;28;20048;-77
2023/07/19 10:00:42;;;;;;;3.97;1.90;;;;;;;29.33;30.97;99987.22;5052763;28;20048;-75
2023/07/19 10:03:09;;;;;;;3.17;1.80;;;;;;;29.44;31.61;99975.75;5049491;28;20511;-75
2023/07/19 10:05:37;;;;;;;3.75;2.10;;;;;;;29.70;31.53;99979.63;5054567;28;20044;-74
2023/07/19 10:08:05;;;;;;;4.03;1.70;;;;;;;29.48;31.18;99989.84;5047108;28;20072;-78
2023/07/19 10:10:40;;;;;;;2.95;1.83;;;;;;;29.53;31.52;99992.81;5057633;28;20063;-78
2023/07/19 10:13:08;;;;;;;4.13;2.00;;;;;;;29.53;31.77;99988.19;5062413;28;20048;-78
2023/07/19 10:15:36;;;;;;;4.45;2.50;;;;;;;29.38;31.43;99989.34;5058793;28;20079;-79
2023/07/19 10:18:12;;;;;;;6.10;2.40;;;;;;;29.17;32.63;99988.41;5045920;28;20052;-81
2023/07/19 10:20:40;;;;;;;4.47;2.38;;;;;;;29.03;32.67;99972.19;5055523;28;20051;-78
2023/07/19 10:23:08;;;;;;;6.10;2.22;;;;;;;29.01;32.91;99988.75;5067147;28;20045;-78
2023/07/19 10:25:48;;;;;;;4.18;2.60;;;;;;;28.92;33.42;99982.63;5058895;28;20135;-79
2023/07/19 10:28:30;;;;;;;7.38;2.72;;;;;;;29.20;32.85;99985.28;5048883;28;20055;-80
2023/07/19 10:30:59;;;;;;;4.40;2.78;;;;;;;29.74;33.07;99968.09;5053810;28;20131;-79
2023/07/19 10:33:47;;;;;;;4.90;2.73;;;;;;;30.46;31.93;99969.22;5059471;28;20492;-80
2023/07/19 10:36:14;;;;;;;4.78;2.30;;;;;;;30.71;31.53;99962.06;5052786;28;20139;-79
2023/07/19 10:38:41;;;;;;;4.95;2.17;;;;;;;30.04;31.38;99971.34;5036170;28;20036;-78
2023/07/19 10:41:09;;;;;;;7.18;1.95;;;;;;;29.59;31.38;99973.69;5042509;28;20063;-80
2023/07/19 10:43:37;;;;;;;7.68;2.28;;;;;;;29.23;31.56;99979.44;5052842;28;20076;-77
2023/07/19 10:46:07;;;;;;;4.38;2.15;;;;;;;29.03;32.32;99966.72;5057072;28;20056;-77
2023/07/19 10:48:37;;;;;;;6.32;1.70;;;;;;;28.95;32.27;99954.97;5067807;28;20058;-76
2023/07/19 10:51:08;;;;;;;3.92;1.60;;;;;;;29.18;32.78;99959.25;5072852;28;20052;-79
2023/07/19 10:53:46;;;;;;;4.25;1.90;;;;;;;29.31;32.24;99964.75;5058466;28;20045;-78
2023/07/19 10:56:14;;;;;;;4.03;2.08;;;;;;;28.79;32.61;99968.03;5069575;28;20112;-78
2023/07/19 10:58:42;;;;;;;4.50;2.40;;;;;;;28.73;33.59;99950.59;5046846;28;20091;-79
2023/07/19 11:01:10;;;;;;;4.45;2.60;;;;;;;29.02;33.27;99949.53;5070152;28;20048;-78
2023/07/19 11:03:38;;;;;;;4.50;2.90;;;;;;;29.22;32.82;99939.56;5063651;28;20090;-78
2023/07/19 11:06:07;;;;;;;5.10;2.33;;;;;;;29.31;32.14;99942.94;5079465;28;20072;-78
2023/07/19 11:08:34;;;;;;;9.00;2.50;;;;;;;29.00;33.37;99939.88;5061521;28;20044;-78
2023/07/19 11:11:01;;;;;;;7.28;2.30;;;;;;;29.00;34.17;99948.06;5060598;28;20048;-78
2023/07/19 11:13:30;;;;;;;8.75;2.20;;;;;;;29.09;33.27;99938.69;5057735;28;20083;-78
2023/07/19 11:16:02;;;;;;;3.83;2.20;;;;;;;28.85;33.58;99938.13;5058120;28;20045;-77
2023/07/19 11:18:39;;;;;;;6.47;2.35;;;;;;;28.63;33.51;99903.81;5046164;28;20648;-76
2023/07/19 11:21:07;;;;;;;5.70;2.00;;;;;;;28.73;34.04;99934.25;5056705;28;20072;-81
2023/07/19 11:23:44;;;;;;;4.65;1.83;;;;;;;28.54;33.77;99937.69;5057857;28;20417;-78
2023/07/19 11:26:12;;;;;;;6.72;2.10;;;;;;;28.69;34.54;99932.97;5051698;28;20734;-79
2023/07/19 11:28:44;;;;;;;5.35;2.30;;;;;;;28.90;34.23;99919.28;5021511;28;20076;-79
2023/07/19 11:31:31;;;;;;;5.95;2.10;;;;;;;28.72;33.35;99932.56;5068028;28;20085;-79